sensor_id;sensor_type;location;lat;lon;timestamp;pressure;altitude;pressure_sealevel;temperature;humidity
56582;BME280;42463;52.214;21.238;2024-02-21T00:00:12;100762.65;;;7.69;65.74
56582;BME280;42463;52.214;21.238;2024-02-21T00:03:04;100758.38;;;7.69;65.90
56582;BME280;42463;52.214;21.238;2024-02-21T00:05:37;100761.90;;;7.60;65.98
56582;BME280;42463;52.214;21.238;2024-02-21T00:08:09;100762.71;;;7.51;66.03
56582;BME280;42463;52.214;21.238;2024-02-21T00:10:42;100765.33;;;7.48;66.36
56582;BME280;42463;52.214;21.238;2024-02-21T00:13:14;100766.90;;;7.52;66.32
56582;BME280;42463;52.214;21.238;2024-02-21T00:15:47;100770.58;;;7.56;66.43
56582;BME280;42463;52.214;21.238;2024-02-21T00:18:19;100764.13;;;7.55;66.35
56582;BME280;42463;52.214;21.238;2024-02-21T00:20:52;100761.52;;;7.49;66.34
56582;BME280;42463;52.214;21.238;2024-02-21T00:23:24;100759.79;;;7.49;66.54
56582;BME280;42463;52.214;21.238;2024-02-21T00:25:56;100762.21;;;7.51;66.50
56582;BME280;42463;52.214;21.238;2024-02-21T00:28:29;100756.73;;;7.51;66.71
56582;BME280;42463;52.214;21.238;2024-02-21T00:31:01;100758.62;;;7.53;66.73
56582;BME280;42463;52.214;21.238;2024-02-21T00:33:33;100757.98;;;7.54;66.57
56582;BME280;42463;52.214;21.238;2024-02-21T00:36:07;100760.30;;;7.51;66.68
56582;BME280;42463;52.214;21.238;2024-02-21T00:38:39;100757.19;;;7.54;66.66
56582;BME280;42463;52.214;21.238;2024-02-21T00:41:12;100755.08;;;7.57;66.87
56582;BME280;42463;52.214;21.238;2024-02-21T00:43:44;100754.73;;;7.61;66.94
56582;BME280;42463;52.214;21.238;2024-02-21T00:46:19;100748.06;;;7.67;67.02
56582;BME280;42463;52.214;21.238;2024-02-21T00:48:52;100748.67;;;7.74;66.96
56582;BME280;42463;52.214;21.238;2024-02-21T00:51:24;100743.98;;;7.81;67.10
56582;BME280;42463;52.214;21.238;2024-02-21T00:53:56;100744.04;;;7.86;66.93
56582;BME280;42463;52.214;21.238;2024-02-21T00:56:29;100743.23;;;7.90;67.05
56582;BME280;42463;52.214;21.238;2024-02-21T00:59:01;100742.67;;;7.93;67.19
56582;BME280;42463;52.214;21.238;2024-02-21T01:01:34;100737.45;;;7.96;67.05
56582;BME280;42463;52.214;21.238;2024-02-21T01:04:07;100736.39;;;7.94;66.78
56582;BME280;42463;52.214;21.238;2024-02-21T01:06:39;100739.93;;;7.94;66.82
56582;BME280;42463;52.214;21.238;2024-02-21T01:09:15;100738.86;;;7.90;66.90
56582;BME280;42463;52.214;21.238;2024-02-21T01:11:47;100738.10;;;7.88;66.85
56582;BME280;42463;52.214;21.238;2024-02-21T01:14:20;100733.23;;;7.86;66.94
56582;BME280;42463;52.214;21.238;2024-02-21T01:16:53;100731.92;;;7.83;66.90
56582;BME280;42463;52.214;21.238;2024-02-21T01:19:26;100731.26;;;7.84;67.18
56582;BME280;42463;52.214;21.238;2024-02-21T01:21:58;100726.44;;;7.88;67.05
56582;BME280;42463;52.214;21.238;2024-02-21T01:24:30;100721.48;;;7.88;67.01
56582;BME280;42463;52.214;21.238;2024-02-21T01:27:03;100720.48;;;7.85;66.80
56582;BME280;42463;52.214;21.238;2024-02-21T01:29:35;100719.38;;;7.87;67.09
56582;BME280;42463;52.214;21.238;2024-02-21T01:32:08;100718.48;;;7.91;67.24
56582;BME280;42463;52.214;21.238;2024-02-21T01:34:41;100715.10;;;7.96;67.03
56582;BME280;42463;52.214;21.238;2024-02-21T01:37:14;100715.92;;;7.93;66.83
56582;BME280;42463;52.214;21.238;2024-02-21T01:39:47;100712.30;;;7.90;67.07
56582;BME280;42463;52.214;21.238;2024-02-21T01:42:20;100712.21;;;7.93;67.12
56582;BME280;42463;52.214;21.238;2024-02-21T01:44:53;100710.39;;;7.88;66.93
56582;BME280;42463;52.214;21.238;2024-02-21T01:47:25;100705.61;;;7.85;67.13
56582;BME280;42463;52.214;21.238;2024-02-21T01:49:58;100706.55;;;7.83;67.16
56582;BME280;42463;52.214;21.238;2024-02-21T01:52:33;100705.08;;;7.85;67.22
56582;BME280;42463;52.214;21.238;2024-02-21T01:55:09;100705.61;;;7.83;67.41
56582;BME280;42463;52.214;21.238;2024-02-21T01:57:42;100703.29;;;7.79;67.34
56582;BME280;42463;52.214;21.238;2024-02-21T02:04:17;100708.45;;;7.72;67.89
56582;BME280;42463;52.214;21.238;2024-02-21T02:06:50;100709.92;;;7.70;68.12
56582;BME280;42463;52.214;21.238;2024-02-21T02:09:22;100707.42;;;7.70;68.40
56582;BME280;42463;52.214;21.238;2024-02-21T02:11:54;100705.90;;;7.70;68.45
56582;BME280;42463;52.214;21.238;2024-02-21T02:14:29;100702.92;;;7.69;68.28
56582;BME280;42463;52.214;21.238;2024-02-21T02:17:01;100702.28;;;7.70;68.71
56582;BME280;42463;52.214;21.238;2024-02-21T02:19:34;100698.59;;;7.69;68.62
56582;BME280;42463;52.214;21.238;2024-02-21T02:22:14;100699.43;;;7.66;68.88
56582;BME280;42463;52.214;21.238;2024-02-21T02:24:49;100700.09;;;7.66;68.96
56582;BME280;42463;52.214;21.238;2024-02-21T02:27:21;100694.38;;;7.65;69.33
56582;BME280;42463;52.214;21.238;2024-02-21T02:30:03;100692.77;;;7.60;69.56
56582;BME280;42463;52.214;21.238;2024-02-21T02:32:35;100691.70;;;7.60;69.85
56582;BME280;42463;52.214;21.238;2024-02-21T02:35:09;100694.40;;;7.63;70.05
56582;BME280;42463;52.214;21.238;2024-02-21T02:37:46;100691.05;;;7.68;69.93
56582;BME280;42463;52.214;21.238;2024-02-21T02:40:19;100691.96;;;7.72;70.02
56582;BME280;42463;52.214;21.238;2024-02-21T02:42:52;100689.45;;;7.70;70.07
56582;BME280;42463;52.214;21.238;2024-02-21T02:45:26;100687.37;;;7.63;69.97
56582;BME280;42463;52.214;21.238;2024-02-21T02:47:59;100685.77;;;7.56;70.45
56582;BME280;42463;52.214;21.238;2024-02-21T02:50:31;100686.59;;;7.47;70.66
56582;BME280;42463;52.214;21.238;2024-02-21T02:53:04;100687.11;;;7.43;71.05
56582;BME280;42463;52.214;21.238;2024-02-21T02:55:37;100686.27;;;7.47;71.31
56582;BME280;42463;52.214;21.238;2024-02-21T02:58:09;100683.59;;;7.52;71.09
56582;BME280;42463;52.214;21.238;2024-02-21T03:00:42;100684.72;;;7.57;71.37
56582;BME280;42463;52.214;21.238;2024-02-21T03:03:14;100686.24;;;7.61;71.12
56582;BME280;42463;52.214;21.238;2024-02-21T03:05:47;100684.55;;;7.63;71.22
56582;BME280;42463;52.214;21.238;2024-02-21T03:08:19;100687.71;;;7.62;71.01
56582;BME280;42463;52.214;21.238;2024-02-21T03:10:51;100688.27;;;7.63;71.26
56582;BME280;42463;52.214;21.238;2024-02-21T03:13:24;100691.04;;;7.69;71.54
56582;BME280;42463;52.214;21.238;2024-02-21T03:15:56;100689.23;;;7.74;71.40
56582;BME280;42463;52.214;21.238;2024-02-21T03:18:29;100689.60;;;7.80;71.27
56582;BME280;42463;52.214;21.238;2024-02-21T03:21:01;100689.27;;;7.85;71.40
56582;BME280;42463;52.214;21.238;2024-02-21T03:23:34;100687.77;;;7.88;71.28
56582;BME280;42463;52.214;21.238;2024-02-21T03:26:06;100688.34;;;7.90;71.07
56582;BME280;42463;52.214;21.238;2024-02-21T03:28:38;100686.33;;;7.85;70.74
56582;BME280;42463;52.214;21.238;2024-02-21T03:31:12;100692.93;;;7.79;71.20
56582;BME280;42463;52.214;21.238;2024-02-21T03:33:45;100688.70;;;7.81;71.42
56582;BME280;42463;52.214;21.238;2024-02-21T03:36:18;100692.73;;;7.88;71.50
56582;BME280;42463;52.214;21.238;2024-02-21T03:38:51;100690.07;;;7.96;71.41
56582;BME280;42463;52.214;21.238;2024-02-21T03:41:23;100686.40;;;8.02;71.33
56582;BME280;42463;52.214;21.238;2024-02-21T03:43:56;100682.52;;;8.07;71.11
56582;BME280;42463;52.214;21.238;2024-02-21T03:46:28;100680.80;;;8.07;70.78
56582;BME280;42463;52.214;21.238;2024-02-21T03:49:01;100680.80;;;8.07;70.64
56582;BME280;42463;52.214;21.238;2024-02-21T03:51:33;100678.20;;;8.09;70.77
56582;BME280;42463;52.214;21.238;2024-02-21T03:54:06;100678.85;;;8.09;70.44
56582;BME280;42463;52.214;21.238;2024-02-21T03:56:41;100677.33;;;8.09;70.38
56582;BME280;42463;52.214;21.238;2024-02-21T03:59:14;100675.57;;;8.10;70.33
56582;BME280;42463;52.214;21.238;2024-02-21T04:01:47;100675.13;;;8.12;70.36
56582;BME280;42463;52.214;21.238;2024-02-21T04:04:24;100674.68;;;8.13;70.18
56582;BME280;42463;52.214;21.238;2024-02-21T04:06:56;100672.52;;;8.13;69.90
56582;BME280;42463;52.214;21.238;2024-02-21T04:09:28;100675.81;;;8.13;69.86
56582;BME280;42463;52.214;21.238;2024-02-21T04:12:02;100677.05;;;8.13;69.60
56582;BME280;42463;52.214;21.238;2024-02-21T04:14:34;100675.29;;;8.12;69.33
56582;BME280;42463;52.214;21.238;2024-02-21T04:17:07;100672.48;;;8.10;69.05
56582;BME280;42463;52.214;21.238;2024-02-21T04:19:40;100670.30;;;8.09;68.98
56582;BME280;42463;52.214;21.238;2024-02-21T04:22:12;100673.52;;;8.08;68.91
56582;BME280;42463;52.214;21.238;2024-02-21T04:24:44;100670.27;;;8.06;68.84
56582;BME280;42463;52.214;21.238;2024-02-21T04:27:17;100671.33;;;8.05;68.73
56582;BME280;42463;52.214;21.238;2024-02-21T04:29:50;100670.57;;;8.02;68.63
56582;BME280;42463;52.214;21.238;2024-02-21T04:32:22;100667.48;;;8.00;68.46
56582;BME280;42463;52.214;21.238;2024-02-21T04:34:55;100667.14;;;7.97;68.40
56582;BME280;42463;52.214;21.238;2024-02-21T04:37:27;100661.81;;;7.96;68.24
56582;BME280;42463;52.214;21.238;2024-02-21T04:40:00;100657.72;;;7.92;68.09
56582;BME280;42463;52.214;21.238;2024-02-21T04:42:33;100660.37;;;7.90;68.31
56582;BME280;42463;52.214;21.238;2024-02-21T04:45:07;100662.55;;;7.89;68.36
56582;BME280;42463;52.214;21.238;2024-02-21T04:47:40;100667.05;;;7.87;68.40
56582;BME280;42463;52.214;21.238;2024-02-21T04:50:13;100667.89;;;7.87;68.26
56582;BME280;42463;52.214;21.238;2024-02-21T04:52:45;100668.45;;;7.85;68.29
56582;BME280;42463;52.214;21.238;2024-02-21T04:55:18;100663.50;;;7.86;68.21
56582;BME280;42463;52.214;21.238;2024-02-21T04:57:50;100663.80;;;7.85;68.27
56582;BME280;42463;52.214;21.238;2024-02-21T05:00:23;100663.71;;;7.86;68.34
56582;BME280;42463;52.214;21.238;2024-02-21T05:02:56;100667.04;;;7.85;68.46
56582;BME280;42463;52.214;21.238;2024-02-21T05:05:28;100667.30;;;7.85;68.38
56582;BME280;42463;52.214;21.238;2024-02-21T05:08:01;100665.39;;;7.82;68.44
56582;BME280;42463;52.214;21.238;2024-02-21T05:10:33;100660.20;;;7.82;68.54
56582;BME280;42463;52.214;21.238;2024-02-21T05:13:06;100656.16;;;7.82;68.58
56582;BME280;42463;52.214;21.238;2024-02-21T05:15:38;100660.14;;;7.81;68.61
56582;BME280;42463;52.214;21.238;2024-02-21T05:18:11;100658.64;;;7.80;68.78
56582;BME280;42463;52.214;21.238;2024-02-21T05:20:45;100653.54;;;7.77;68.84
56582;BME280;42463;52.214;21.238;2024-02-21T05:23:18;100655.48;;;7.77;68.99
56582;BME280;42463;52.214;21.238;2024-02-21T05:25:50;100656.38;;;7.78;69.16
56582;BME280;42463;52.214;21.238;2024-02-21T05:28:23;100655.86;;;7.79;69.19
56582;BME280;42463;52.214;21.238;2024-02-21T05:30:55;100658.84;;;7.79;69.40
56582;BME280;42463;52.214;21.238;2024-02-21T05:33:28;100656.63;;;7.79;69.32
56582;BME280;42463;52.214;21.238;2024-02-21T05:36:00;100651.53;;;7.81;69.40
56582;BME280;42463;52.214;21.238;2024-02-21T05:38:34;100649.82;;;7.83;69.61
56582;BME280;42463;52.214;21.238;2024-02-21T05:41:07;100650.77;;;7.87;69.68
56582;BME280;42463;52.214;21.238;2024-02-21T05:43:40;100652.11;;;7.88;69.84
56582;BME280;42463;52.214;21.238;2024-02-21T05:46:12;100649.50;;;7.85;69.81
56582;BME280;42463;52.214;21.238;2024-02-21T05:48:45;100651.13;;;7.85;69.82
56582;BME280;42463;52.214;21.238;2024-02-21T05:51:17;100651.53;;;7.85;69.94
56582;BME280;42463;52.214;21.238;2024-02-21T05:53:50;100650.91;;;7.83;69.82
56582;BME280;42463;52.214;21.238;2024-02-21T05:56:22;100653.06;;;7.84;69.84
56582;BME280;42463;52.214;21.238;2024-02-21T05:58:55;100652.38;;;7.80;70.02
56582;BME280;42463;52.214;21.238;2024-02-21T06:01:27;100649.64;;;7.79;70.09
56582;BME280;42463;52.214;21.238;2024-02-21T06:04:00;100648.98;;;7.82;70.37
56582;BME280;42463;52.214;21.238;2024-02-21T06:06:32;100645.55;;;7.83;70.22
56582;BME280;42463;52.214;21.238;2024-02-21T06:09:05;100643.64;;;7.80;70.30
56582;BME280;42463;52.214;21.238;2024-02-21T06:11:38;100640.95;;;7.80;70.31
56582;BME280;42463;52.214;21.238;2024-02-21T06:14:10;100647.23;;;7.82;70.49
56582;BME280;42463;52.214;21.238;2024-02-21T06:16:42;100645.71;;;7.86;70.56
56582;BME280;42463;52.214;21.238;2024-02-21T06:19:15;100641.69;;;7.88;70.49
56582;BME280;42463;52.214;21.238;2024-02-21T06:21:47;100633.35;;;7.90;70.57
56582;BME280;42463;52.214;21.238;2024-02-21T06:24:20;100631.17;;;7.91;70.71
56582;BME280;42463;52.214;21.238;2024-02-21T06:26:53;100640.66;;;7.90;70.65
56582;BME280;42463;52.214;21.238;2024-02-21T06:29:25;100644.50;;;7.86;70.75
56582;BME280;42463;52.214;21.238;2024-02-21T06:31:57;100642.58;;;7.87;70.84
56582;BME280;42463;52.214;21.238;2024-02-21T06:34:31;100643.66;;;7.90;71.10
56582;BME280;42463;52.214;21.238;2024-02-21T06:37:04;100642.28;;;7.93;71.16
56582;BME280;42463;52.214;21.238;2024-02-21T06:39:37;100639.40;;;7.96;71.09
56582;BME280;42463;52.214;21.238;2024-02-21T06:42:12;100635.12;;;8.00;71.12
56582;BME280;42463;52.214;21.238;2024-02-21T06:44:45;100641.66;;;7.98;71.15
56582;BME280;42463;52.214;21.238;2024-02-21T06:47:17;100642.81;;;7.99;71.36
56582;BME280;42463;52.214;21.238;2024-02-21T06:49:52;100644.38;;;8.03;71.40
56582;BME280;42463;52.214;21.238;2024-02-21T06:52:24;100641.70;;;8.04;71.41
56582;BME280;42463;52.214;21.238;2024-02-21T06:54:58;100645.65;;;8.09;71.38
56582;BME280;42463;52.214;21.238;2024-02-21T06:57:32;100641.99;;;8.11;71.20
56582;BME280;42463;52.214;21.238;2024-02-21T07:00:05;100643.30;;;8.12;71.34
56582;BME280;42463;52.214;21.238;2024-02-21T07:02:39;100647.92;;;8.15;71.54
56582;BME280;42463;52.214;21.238;2024-02-21T07:05:11;100645.73;;;8.16;71.25
56582;BME280;42463;52.214;21.238;2024-02-21T07:07:44;100640.05;;;8.16;71.62
56582;BME280;42463;52.214;21.238;2024-02-21T07:10:16;100641.91;;;8.17;71.43
56582;BME280;42463;52.214;21.238;2024-02-21T07:12:49;100644.55;;;8.15;71.31
56582;BME280;42463;52.214;21.238;2024-02-21T07:15:21;100642.34;;;8.10;71.52
56582;BME280;42463;52.214;21.238;2024-02-21T07:17:57;100638.24;;;8.06;71.63
56582;BME280;42463;52.214;21.238;2024-02-21T07:20:30;100636.30;;;8.04;71.84
56582;BME280;42463;52.214;21.238;2024-02-21T07:23:03;100637.00;;;8.07;72.18
56582;BME280;42463;52.214;21.238;2024-02-21T07:25:35;100638.70;;;8.05;71.96
56582;BME280;42463;52.214;21.238;2024-02-21T07:28:08;100640.34;;;8.08;72.04
56582;BME280;42463;52.214;21.238;2024-02-21T07:30:41;100635.59;;;8.11;72.17
56582;BME280;42463;52.214;21.238;2024-02-21T07:33:13;100636.45;;;8.15;72.25
56582;BME280;42463;52.214;21.238;2024-02-21T07:35:46;100633.61;;;8.15;72.39
56582;BME280;42463;52.214;21.238;2024-02-21T07:38:18;100634.77;;;8.21;72.42
56582;BME280;42463;52.214;21.238;2024-02-21T07:40:51;100632.00;;;8.27;72.40
56582;BME280;42463;52.214;21.238;2024-02-21T07:43:23;100634.42;;;8.34;72.36
56582;BME280;42463;52.214;21.238;2024-02-21T07:45:57;100626.48;;;8.40;72.34
56582;BME280;42463;52.214;21.238;2024-02-21T07:48:30;100620.95;;;8.44;72.12
56582;BME280;42463;52.214;21.238;2024-02-21T07:51:02;100618.60;;;8.43;71.96
56582;BME280;42463;52.214;21.238;2024-02-21T07:53:35;100616.11;;;8.45;72.11
56582;BME280;42463;52.214;21.238;2024-02-21T07:56:09;100618.79;;;8.47;71.97
56582;BME280;42463;52.214;21.238;2024-02-21T07:58:42;100619.02;;;8.47;71.82
56582;BME280;42463;52.214;21.238;2024-02-21T08:01:19;100613.06;;;8.50;72.15
56582;BME280;42463;52.214;21.238;2024-02-21T08:03:52;100613.14;;;8.55;72.05
56582;BME280;42463;52.214;21.238;2024-02-21T08:06:25;100611.16;;;8.58;72.02
56582;BME280;42463;52.214;21.238;2024-02-21T08:08:57;100610.98;;;8.55;71.71
56582;BME280;42463;52.214;21.238;2024-02-21T08:11:32;100605.27;;;8.53;72.08
56582;BME280;42463;52.214;21.238;2024-02-21T08:14:05;100607.27;;;8.58;72.01
56582;BME280;42463;52.214;21.238;2024-02-21T08:16:38;100605.65;;;8.64;72.04
56582;BME280;42463;52.214;21.238;2024-02-21T08:19:10;100602.38;;;8.68;72.05
56582;BME280;42463;52.214;21.238;2024-02-21T08:21:42;100603.06;;;8.69;71.78
56582;BME280;42463;52.214;21.238;2024-02-21T08:24:18;100592.67;;;8.69;71.84
56582;BME280;42463;52.214;21.238;2024-02-21T08:26:50;100584.23;;;8.74;71.95
56582;BME280;42463;52.214;21.238;2024-02-21T08:29:23;100576.42;;;8.80;72.00
56582;BME280;42463;52.214;21.238;2024-02-21T08:31:55;100576.02;;;8.85;72.11
56582;BME280;42463;52.214;21.238;2024-02-21T08:34:28;100567.60;;;8.90;71.77
56582;BME280;42463;52.214;21.238;2024-02-21T08:37:05;100569.00;;;8.99;71.84
56582;BME280;42463;52.214;21.238;2024-02-21T08:39:37;100570.04;;;9.07;71.71
56582;BME280;42463;52.214;21.238;2024-02-21T08:42:09;100564.80;;;9.16;71.86
56582;BME280;42463;52.214;21.238;2024-02-21T08:44:44;100568.21;;;9.22;71.44
56582;BME280;42463;52.214;21.238;2024-02-21T08:47:16;100564.99;;;9.26;71.65
56582;BME280;42463;52.214;21.238;2024-02-21T08:49:49;100562.69;;;9.31;71.18
56582;BME280;42463;52.214;21.238;2024-02-21T08:52:22;100564.69;;;9.33;71.31
56582;BME280;42463;52.214;21.238;2024-02-21T08:54:54;100562.91;;;9.36;70.91
56582;BME280;42463;52.214;21.238;2024-02-21T08:57:27;100562.14;;;9.35;70.52
56582;BME280;42463;52.214;21.238;2024-02-21T08:59:59;100565.05;;;9.33;70.37
56582;BME280;42463;52.214;21.238;2024-02-21T09:02:31;100558.80;;;9.31;70.44
56582;BME280;42463;52.214;21.238;2024-02-21T09:05:05;100564.02;;;9.29;70.47
56582;BME280;42463;52.214;21.238;2024-02-21T09:07:37;100563.13;;;9.28;70.34
56582;BME280;42463;52.214;21.238;2024-02-21T09:10:11;100556.34;;;9.24;70.15
56582;BME280;42463;52.214;21.238;2024-02-21T09:12:44;100553.75;;;9.22;70.51
56582;BME280;42463;52.214;21.238;2024-02-21T09:15:17;100554.70;;;9.23;70.37
56582;BME280;42463;52.214;21.238;2024-02-21T09:17:49;100557.23;;;9.28;70.35
56582;BME280;42463;52.214;21.238;2024-02-21T09:20:22;100557.55;;;9.36;70.28
56582;BME280;42463;52.214;21.238;2024-02-21T09:22:54;100551.63;;;9.37;70.15
56582;BME280;42463;52.214;21.238;2024-02-21T09:25:27;100558.01;;;9.35;70.16
56582;BME280;42463;52.214;21.238;2024-02-21T09:28:00;100551.23;;;9.32;69.79
56582;BME280;42463;52.214;21.238;2024-02-21T09:30:33;100543.73;;;9.36;70.07
56582;BME280;42463;52.214;21.238;2024-02-21T09:33:06;100546.11;;;9.41;70.05
56582;BME280;42463;52.214;21.238;2024-02-21T09:35:39;100542.79;;;9.42;69.71
56582;BME280;42463;52.214;21.238;2024-02-21T09:38:11;100546.08;;;9.41;69.93
56582;BME280;42463;52.214;21.238;2024-02-21T09:40:44;100547.23;;;9.42;69.62
56582;BME280;42463;52.214;21.238;2024-02-21T09:43:19;100549.59;;;9.44;69.77
56582;BME280;42463;52.214;21.238;2024-02-21T09:45:55;100543.64;;;9.47;69.58
56582;BME280;42463;52.214;21.238;2024-02-21T09:48:40;100543.30;;;9.49;69.28
56582;BME280;42463;52.214;21.238;2024-02-21T09:51:17;100545.64;;;9.47;69.16
56582;BME280;42463;52.214;21.238;2024-02-21T09:53:52;100542.35;;;9.45;69.32
56582;BME280;42463;52.214;21.238;2024-02-21T09:56:25;100537.42;;;9.45;69.27
56582;BME280;42463;52.214;21.238;2024-02-21T09:58:58;100537.80;;;9.42;69.06
56582;BME280;42463;52.214;21.238;2024-02-21T10:01:31;100539.36;;;9.41;69.33
56582;BME280;42463;52.214;21.238;2024-02-21T10:04:05;100537.92;;;9.42;69.36
56582;BME280;42463;52.214;21.238;2024-02-21T10:06:37;100536.23;;;9.39;69.04
56582;BME280;42463;52.214;21.238;2024-02-21T10:12:15;100529.77;;;9.41;69.60
56582;BME280;42463;52.214;21.238;2024-02-21T10:14:50;100528.54;;;9.41;69.93
56582;BME280;42463;52.214;21.238;2024-02-21T10:17:32;100519.61;;;9.40;69.92
56582;BME280;42463;52.214;21.238;2024-02-21T10:20:12;100517.21;;;9.41;69.87
56582;BME280;42463;52.214;21.238;2024-02-21T10:22:46;100507.46;;;9.44;70.17
56582;BME280;42463;52.214;21.238;2024-02-21T10:25:19;100504.86;;;9.47;69.80
56582;BME280;42463;52.214;21.238;2024-02-21T10:27:51;100503.99;;;9.53;69.94
56582;BME280;42463;52.214;21.238;2024-02-21T10:30:24;100500.70;;;9.58;70.03
56582;BME280;42463;52.214;21.238;2024-02-21T10:32:57;100504.82;;;9.64;70.12
56582;BME280;42463;52.214;21.238;2024-02-21T10:35:31;100503.30;;;9.68;69.79
56582;BME280;42463;52.214;21.238;2024-02-21T10:38:05;100496.64;;;9.71;69.74
56582;BME280;42463;52.214;21.238;2024-02-21T10:40:38;100494.72;;;9.73;69.60
56582;BME280;42463;52.214;21.238;2024-02-21T10:43:14;100493.13;;;9.75;69.36
56582;BME280;42463;52.214;21.238;2024-02-21T10:45:47;100490.39;;;9.77;69.27
56582;BME280;42463;52.214;21.238;2024-02-21T10:48:25;100490.14;;;9.78;69.27
56582;BME280;42463;52.214;21.238;2024-02-21T10:51:08;100489.00;;;9.78;69.05
56582;BME280;42463;52.214;21.238;2024-02-21T10:53:53;100481.98;;;9.72;68.54
56582;BME280;42463;52.214;21.238;2024-02-21T10:56:32;100480.52;;;9.73;68.66
56582;BME280;42463;52.214;21.238;2024-02-21T10:59:08;100476.38;;;9.75;68.65
56582;BME280;42463;52.214;21.238;2024-02-21T11:01:41;100475.36;;;9.76;68.33
56582;BME280;42463;52.214;21.238;2024-02-21T11:04:14;100472.08;;;9.77;68.43
56582;BME280;42463;52.214;21.238;2024-02-21T11:06:47;100465.00;;;9.78;68.75
56582;BME280;42463;52.214;21.238;2024-02-21T11:09:28;100464.06;;;9.81;68.96
56582;BME280;42463;52.214;21.238;2024-02-21T11:12:03;100456.09;;;9.80;68.94
56582;BME280;42463;52.214;21.238;2024-02-21T11:14:40;100451.27;;;9.80;69.19
56582;BME280;42463;52.214;21.238;2024-02-21T11:17:20;100447.52;;;9.83;69.18
56582;BME280;42463;52.214;21.238;2024-02-21T11:19:57;100441.52;;;9.87;69.22
56582;BME280;42463;52.214;21.238;2024-02-21T11:22:42;100438.55;;;9.89;69.65
56582;BME280;42463;52.214;21.238;2024-02-21T11:25:23;100436.04;;;9.95;69.70
56582;BME280;42463;52.214;21.238;2024-02-21T11:28:02;100435.45;;;9.97;69.53
56582;BME280;42463;52.214;21.238;2024-02-21T11:30:36;100430.52;;;9.96;69.95
56582;BME280;42463;52.214;21.238;2024-02-21T11:33:10;100426.96;;;9.98;69.74
56582;BME280;42463;52.214;21.238;2024-02-21T11:35:44;100426.80;;;9.96;69.63
56582;BME280;42463;52.214;21.238;2024-02-21T11:38:17;100421.69;;;9.89;69.73
56582;BME280;42463;52.214;21.238;2024-02-21T11:40:49;100420.65;;;9.80;69.86
56582;BME280;42463;52.214;21.238;2024-02-21T11:43:22;100423.27;;;9.74;70.24
56582;BME280;42463;52.214;21.238;2024-02-21T11:46:01;100428.17;;;9.76;70.66
56582;BME280;42463;52.214;21.238;2024-02-21T11:48:35;100421.55;;;9.79;71.01
56582;BME280;42463;52.214;21.238;2024-02-21T11:51:08;100418.85;;;9.83;71.17
56582;BME280;42463;52.214;21.238;2024-02-21T11:53:41;100420.99;;;9.85;71.10
56582;BME280;42463;52.214;21.238;2024-02-21T11:56:15;100418.40;;;9.86;71.51
56582;BME280;42463;52.214;21.238;2024-02-21T11:58:48;100419.11;;;9.86;71.11
56582;BME280;42463;52.214;21.238;2024-02-21T12:01:21;100422.66;;;9.84;71.47
56582;BME280;42463;52.214;21.238;2024-02-21T12:03:53;100418.95;;;9.82;71.68
56582;BME280;42463;52.214;21.238;2024-02-21T12:06:27;100414.27;;;9.80;71.80
56582;BME280;42463;52.214;21.238;2024-02-21T12:09:02;100409.54;;;9.79;71.79
56582;BME280;42463;52.214;21.238;2024-02-21T12:11:36;100400.38;;;9.76;72.00
56582;BME280;42463;52.214;21.238;2024-02-21T12:14:08;100399.79;;;9.73;72.24
56582;BME280;42463;52.214;21.238;2024-02-21T12:16:41;100406.62;;;9.70;72.31
56582;BME280;42463;52.214;21.238;2024-02-21T12:19:15;100406.79;;;9.70;72.63
56582;BME280;42463;52.214;21.238;2024-02-21T12:21:51;100403.02;;;9.74;72.73
56582;BME280;42463;52.214;21.238;2024-02-21T12:24:27;100393.05;;;9.78;72.99
56582;BME280;42463;52.214;21.238;2024-02-21T12:26:59;100376.95;;;9.78;72.95
56582;BME280;42463;52.214;21.238;2024-02-21T12:29:34;100385.23;;;9.86;72.89
56582;BME280;42463;52.214;21.238;2024-02-21T12:32:08;100383.24;;;9.86;72.91
56582;BME280;42463;52.214;21.238;2024-02-21T12:34:40;100382.15;;;9.82;73.14
56582;BME280;42463;52.214;21.238;2024-02-21T12:37:13;100382.30;;;9.81;73.23
56582;BME280;42463;52.214;21.238;2024-02-21T12:39:47;100379.84;;;9.80;73.17
56582;BME280;42463;52.214;21.238;2024-02-21T12:42:19;100375.30;;;9.77;73.33
56582;BME280;42463;52.214;21.238;2024-02-21T12:44:52;100372.61;;;9.78;73.37
56582;BME280;42463;52.214;21.238;2024-02-21T12:47:25;100371.71;;;9.80;73.49
56582;BME280;42463;52.214;21.238;2024-02-21T12:49:57;100369.05;;;9.83;73.73
56582;BME280;42463;52.214;21.238;2024-02-21T12:52:30;100363.84;;;9.87;73.88
56582;BME280;42463;52.214;21.238;2024-02-21T12:55:03;100365.50;;;9.89;73.53
56582;BME280;42463;52.214;21.238;2024-02-21T12:57:36;100361.73;;;9.87;73.43
56582;BME280;42463;52.214;21.238;2024-02-21T13:00:11;100355.63;;;9.88;73.42
56582;BME280;42463;52.214;21.238;2024-02-21T13:02:44;100356.06;;;9.88;73.24
56582;BME280;42463;52.214;21.238;2024-02-21T13:05:17;100359.24;;;9.83;73.65
56582;BME280;42463;52.214;21.238;2024-02-21T13:07:50;100353.94;;;9.79;73.66
56582;BME280;42463;52.214;21.238;2024-02-21T13:10:23;100357.02;;;9.75;73.78
56582;BME280;42463;52.214;21.238;2024-02-21T13:12:55;100352.14;;;9.74;73.79
56582;BME280;42463;52.214;21.238;2024-02-21T13:15:27;100353.23;;;9.71;73.85
56582;BME280;42463;52.214;21.238;2024-02-21T13:18:00;100350.52;;;9.72;74.02
56582;BME280;42463;52.214;21.238;2024-02-21T13:20:33;100348.70;;;9.72;74.22
56582;BME280;42463;52.214;21.238;2024-02-21T13:23:05;100344.08;;;9.75;74.44
56582;BME280;42463;52.214;21.238;2024-02-21T13:25:38;100342.70;;;9.77;74.32
56582;BME280;42463;52.214;21.238;2024-02-21T13:28:11;100342.25;;;9.77;74.04